EUN weather

Hassan I Airport
El AaiĂșn, Western Sahara

Public forecast

Using degrees Celsius for public forecast. Weather courtesy of forecast.io.

Current aviation weather report (METAR) for Hassan I Airport

Report is more than 6 hours old.

Retrieved 2020/07/07 08:45 UTC (5 days ago):

GMML 070845Z 34008KT 5000 SCT010 24/21 Q1012 B2/3

Aviation forecast (TAF) for Hassan I Airport

Retrieved 2020/07/12 06:30 UTC (3 hours ago):

TAF TAF GMML 120500Z 1206/1312 04013KT 8000 BKN017